< < Back
Terminal Aerodrome Forecast


Current Version              Previous Versions:   1  2  3  4  5  6  7  8  9  

Terminal Aerodrome Forecast

365
FTUS42 KCHS 281129
TAFSAV
TAF
KSAV 281129Z 2812/2912 03005KT P6SM FEW060 BKN250
     FM281500 03010G15KT P6SM BKN040
     FM282000 04010G15KT P6SM SCT035 BKN080
     FM290000 36007KT P6SM SCT030 BKN250
     FM290600 33009KT P6SM SCT015 OVC035=

Latest METAR

831
SAUS80 KWBC 290200
MTRSAV
METAR KSAV 290153Z 33008KT 10SM BKN015 22/19 A3006 RMK AO2 SLP178
T02170189


USA.gov is the U.S. government's official web portal to all federal, state and local government web resources and services.